createdAt,value
2019-03-15T00:00:30.348Z,2.47
2019-03-15T00:05:23.756Z,3.20
2019-03-15T00:10:17.129Z,2.93
2019-03-15T00:15:10.565Z,3.20
2019-03-15T00:20:04.197Z,2.57
2019-03-15T00:24:57.636Z,2.50
2019-03-15T00:29:50.998Z,2.73
2019-03-15T00:34:44.452Z,3.50
2019-03-15T00:39:38.085Z,3.07
2019-03-15T00:44:31.806Z,3.07
2019-03-15T00:49:25.179Z,2.73
2019-03-15T00:54:18.831Z,3.00
2019-03-15T00:59:12.221Z,3.00
2019-03-15T01:04:05.592Z,2.97
2019-03-15T01:08:58.990Z,3.40
2019-03-15T01:13:52.652Z,3.07
2019-03-15T01:18:46.035Z,2.97
2019-03-15T01:23:39.720Z,2.70
2019-03-15T01:28:33.391Z,2.60
2019-03-15T01:33:26.855Z,2.77
2019-03-15T01:38:20.250Z,3.07
2019-03-15T01:43:13.857Z,3.00
2019-03-15T01:48:07.282Z,3.17
2019-03-15T01:53:00.927Z,2.53
2019-03-15T01:57:54.298Z,3.17
2019-03-15T02:02:48.497Z,3.87
2019-03-15T02:07:41.056Z,3.13
2019-03-15T02:12:34.431Z,3.30
2019-03-15T02:17:27.839Z,2.90
2019-03-15T02:22:21.513Z,3.00
2019-03-15T02:27:15.178Z,3.63
2019-03-15T02:32:08.633Z,3.30
2019-03-15T02:37:01.988Z,3.40
2019-03-15T02:41:55.644Z,3.10
2019-03-15T02:46:49.320Z,3.00
2019-03-15T02:51:42.681Z,3.30
2019-03-15T02:56:36.172Z,4.10
2019-03-15T03:01:29.548Z,3.60
2019-03-15T03:06:22.918Z,3.73
2019-03-15T03:11:16.294Z,3.47
2019-03-15T03:16:09.677Z,3.43
2019-03-15T03:21:03.553Z,3.47
2019-03-15T03:25:56.967Z,2.93
2019-03-15T03:30:50.366Z,3.40
2019-03-15T03:35:44.031Z,3.07
2019-03-15T03:40:37.419Z,3.57
2019-03-15T03:45:31.082Z,3.83
2019-03-15T03:50:24.463Z,3.50
2019-03-15T03:55:17.878Z,3.57
2019-03-15T04:00:11.584Z,3.67
2019-03-15T04:05:05.324Z,2.93
2019-03-15T04:09:58.705Z,3.27
2019-03-15T04:14:52.144Z,2.87
2019-03-15T04:19:45.599Z,3.40
2019-03-15T04:24:39.292Z,3.20
2019-03-15T04:29:32.662Z,2.83
2019-03-15T04:34:28.415Z,3.60
2019-03-15T04:39:19.514Z,2.60
2019-03-15T04:44:13.170Z,3.40
2019-03-15T04:49:06.536Z,2.73
2019-03-15T04:53:59.930Z,3.40
2019-03-15T04:58:53.310Z,2.60
2019-03-15T05:03:46.758Z,2.70
2019-03-15T05:08:40.150Z,2.77
2019-03-15T05:13:33.763Z,2.77
2019-03-15T05:18:27.119Z,2.43
2019-03-15T05:23:20.516Z,2.47
2019-03-15T05:28:14.199Z,2.40
2019-03-15T05:33:09.808Z,2.07
2019-03-15T05:38:03.726Z,2.40
2019-03-15T05:42:57.103Z,3.13
2019-03-15T05:47:50.472Z,2.50
2019-03-15T05:52:44.283Z,3.27
2019-03-15T05:57:37.659Z,2.30
2019-03-15T06:02:31.276Z,2.17
2019-03-15T06:07:24.959Z,2.57
2019-03-15T06:12:18.708Z,2.37
2019-03-15T06:17:12.121Z,2.80
2019-03-15T06:22:05.835Z,2.73
2019-03-15T06:26:59.417Z,2.57
2019-03-15T06:31:53.064Z,2.20
2019-03-15T06:36:46.748Z,1.97
2019-03-15T06:41:40.119Z,2.27
2019-03-15T06:46:33.807Z,2.10
2019-03-15T06:51:27.164Z,2.40
2019-03-15T06:56:20.580Z,1.87
2019-03-15T07:01:14.261Z,2.17
2019-03-15T07:06:07.938Z,2.10
2019-03-15T07:11:01.303Z,1.80
2019-03-15T07:15:54.734Z,1.80
2019-03-15T07:20:48.103Z,1.67
2019-03-15T07:25:41.757Z,2.13
2019-03-15T07:30:35.123Z,1.70
2019-03-15T07:35:28.486Z,1.87
2019-03-15T07:40:21.909Z,1.57
2019-03-15T07:45:15.586Z,1.37
2019-03-15T07:50:09.103Z,1.47
2019-03-15T07:55:02.648Z,1.50
2019-03-15T07:59:56.021Z,1.90
2019-03-15T08:04:49.400Z,1.63
2019-03-15T08:09:42.805Z,2.20
2019-03-15T08:14:36.450Z,2.00
2019-03-15T08:19:29.814Z,2.40
2019-03-15T08:24:23.241Z,2.30
2019-03-15T08:29:16.608Z,2.57
2019-03-15T08:34:10.311Z,3.23
2019-03-15T08:39:04.749Z,2.70
2019-03-15T08:43:58.280Z,3.17
2019-03-15T08:48:51.963Z,3.27
2019-03-15T08:53:45.653Z,3.43
2019-03-15T08:58:39.119Z,3.43
2019-03-15T09:03:34.286Z,4.27
2019-03-15T09:08:26.110Z,3.37
2019-03-15T09:13:19.827Z,4.07
2019-03-15T09:18:13.219Z,3.47
2019-03-15T09:23:06.597Z,2.97
2019-03-15T09:27:59.982Z,3.30
2019-03-15T09:32:53.619Z,3.17
2019-03-15T09:37:47.819Z,2.43
2019-03-15T09:42:40.351Z,1.90
2019-03-15T09:47:33.814Z,2.20
2019-03-15T09:52:27.437Z,2.50
2019-03-15T09:57:21.126Z,2.20
2019-03-15T10:02:14.799Z,2.63
2019-03-15T10:07:08.506Z,2.50
2019-03-15T10:12:01.855Z,2.80
2019-03-15T10:17:02.245Z,2.47
2019-03-15T10:21:56.415Z,3.20
2019-03-15T10:26:51.355Z,3.17
2019-03-15T10:31:45.022Z,2.57
2019-03-15T10:36:38.681Z,2.60
2019-03-15T10:41:32.455Z,2.67
2019-03-15T10:46:32.212Z,2.30
2019-03-15T10:51:26.546Z,2.30
2019-03-15T10:56:39.006Z,2.20
2019-03-15T11:01:38.077Z,2.03
2019-03-15T11:06:35.303Z,2.13
2019-03-15T11:11:29.093Z,2.17
2019-03-15T11:16:22.451Z,2.17
2019-03-15T11:21:17.316Z,2.13
2019-03-15T11:26:13.817Z,2.30
2019-03-15T11:31:04.152Z,2.70
2019-03-15T11:35:58.823Z,2.03
2019-03-15T11:40:52.196Z,2.47
2019-03-15T11:45:45.833Z,2.33
2019-03-15T11:50:39.199Z,2.50
2019-03-15T11:55:32.679Z,2.10
2019-03-15T12:00:26.019Z,2.30
2019-03-15T12:05:19.651Z,2.20
2019-03-15T12:10:13.142Z,2.37
2019-03-15T12:15:07.388Z,1.80
2019-03-15T12:20:00.750Z,2.30
2019-03-15T12:24:54.111Z,1.97
2019-03-15T12:29:47.482Z,2.10
2019-03-15T12:34:40.868Z,2.40
2019-03-15T12:39:34.267Z,2.37
2019-03-15T12:44:27.918Z,2.00
2019-03-15T12:49:21.277Z,2.00
2019-03-15T12:54:14.678Z,1.80
2019-03-15T12:59:08.042Z,2.37
2019-03-15T13:04:01.438Z,1.60
2019-03-15T13:08:54.810Z,1.43
2019-03-15T13:13:50.756Z,1.90
2019-03-15T13:18:41.550Z,1.47
2019-03-15T13:23:34.970Z,2.00
2019-03-15T13:28:28.344Z,2.10
2019-03-15T13:33:22.031Z,1.80
2019-03-15T13:38:15.401Z,2.13
2019-03-15T13:43:09.081Z,2.20
2019-03-15T13:48:03.259Z,2.20
2019-03-15T13:52:56.806Z,2.23
2019-03-15T13:57:50.180Z,1.60
2019-03-15T14:02:43.850Z,1.80
2019-03-15T14:07:37.235Z,1.63
2019-03-15T14:12:30.904Z,1.80
2019-03-15T14:17:24.295Z,2.20
2019-03-15T14:22:17.977Z,2.23
2019-03-15T14:27:11.335Z,2.07
2019-03-15T14:32:06.885Z,2.23
2019-03-15T14:36:58.126Z,2.13
2019-03-15T14:41:51.479Z,1.57
2019-03-15T14:46:44.843Z,2.27
2019-03-15T14:51:38.209Z,2.23
2019-03-15T14:56:31.613Z,1.70
2019-03-15T15:12:48.222Z,1.50
2019-03-15T15:17:41.611Z,2.07
2019-03-15T15:22:35.303Z,1.83
2019-03-15T15:27:28.676Z,1.57
2019-03-15T15:32:22.383Z,1.90
2019-03-15T15:37:15.757Z,1.83
2019-03-15T15:42:11.636Z,1.90
2019-03-15T15:47:05.428Z,1.63
2019-03-15T15:51:58.792Z,1.60
2019-03-15T15:56:52.331Z,1.60
2019-03-15T16:01:45.718Z,2.00
2019-03-15T16:06:39.375Z,1.40
2019-03-15T16:11:32.731Z,1.57
2019-03-15T16:16:26.122Z,1.67
2019-03-15T16:21:19.502Z,1.37
2019-03-15T16:26:12.892Z,1.70
2019-03-15T16:31:06.254Z,1.50
2019-03-15T16:35:59.715Z,1.47
2019-03-15T16:40:53.095Z,1.50
2019-03-15T16:45:46.742Z,1.77
2019-03-15T16:50:40.079Z,1.70
2019-03-15T16:55:33.498Z,1.43
2019-03-15T17:00:26.893Z,1.43
2019-03-15T17:05:20.561Z,1.70
2019-03-15T17:10:13.945Z,1.50
2019-03-15T17:15:08.367Z,1.60
2019-03-15T17:20:01.959Z,1.33
2019-03-15T17:24:55.599Z,1.60
2019-03-15T17:29:49.101Z,1.43
2019-03-15T17:34:42.723Z,1.43
2019-03-15T17:39:36.216Z,1.33
2019-03-15T17:44:29.727Z,1.43
2019-03-15T17:49:23.120Z,1.33
2019-03-15T17:54:16.783Z,1.50
2019-03-15T17:59:12.781Z,1.57
2019-03-15T18:04:03.552Z,1.50
2019-03-15T18:08:56.897Z,1.50
2019-03-15T18:13:50.403Z,1.30
2019-03-15T18:18:43.995Z,1.70
2019-03-15T18:23:37.385Z,1.67
2019-03-15T18:28:30.742Z,1.50
2019-03-15T18:33:24.137Z,1.30
2019-03-15T18:38:17.820Z,1.37
2019-03-15T18:43:11.510Z,1.23
2019-03-15T18:48:04.876Z,1.20
2019-03-15T18:52:58.293Z,1.40
2019-03-15T18:57:51.676Z,1.40
2019-03-15T19:02:45.348Z,1.47
2019-03-15T19:07:38.759Z,1.27
2019-03-15T19:12:32.385Z,1.67
2019-03-15T19:17:25.794Z,1.10
2019-03-15T19:22:19.161Z,1.50
2019-03-15T19:27:12.515Z,1.30
2019-03-15T19:32:05.881Z,1.60
2019-03-15T19:37:00.999Z,1.77
2019-03-15T19:41:52.644Z,1.30
2019-03-15T19:46:46.003Z,1.43
2019-03-15T19:51:39.356Z,1.10
2019-03-15T19:56:32.799Z,1.33
2019-03-15T20:01:28.869Z,1.53
2019-03-15T20:06:19.555Z,1.20
2019-03-15T20:11:12.912Z,1.40
2019-03-15T20:16:06.353Z,1.10
2019-03-15T20:20:59.699Z,1.10
2019-03-15T20:25:53.391Z,1.40
2019-03-15T20:30:51.949Z,1.20
2019-03-15T20:35:40.127Z,1.30
2019-03-15T20:40:33.494Z,1.27
2019-03-15T20:45:26.913Z,1.10
2019-03-15T20:50:20.584Z,1.20
2019-03-15T20:55:13.973Z,1.30
2019-03-15T21:00:08.580Z,1.00
2019-03-15T21:05:02.251Z,1.10
2019-03-15T21:09:55.611Z,1.40
2019-03-15T21:14:49.321Z,1.63
2019-03-15T21:19:42.690Z,1.53
2019-03-15T21:24:36.087Z,1.13
2019-03-15T21:29:29.437Z,1.27
2019-03-15T21:34:22.794Z,1.20
2019-03-15T21:39:16.203Z,1.20
2019-03-15T21:44:09.666Z,1.20
2019-03-15T21:49:03.187Z,1.20
2019-03-15T21:53:56.566Z,1.47
2019-03-15T21:58:50.028Z,1.37
2019-03-15T22:03:43.443Z,1.30
2019-03-15T22:08:37.131Z,1.43
2019-03-15T22:13:30.483Z,1.40
2019-03-15T22:18:23.909Z,1.80
2019-03-15T22:23:17.286Z,1.50
2019-03-15T22:28:10.653Z,1.63
2019-03-15T22:33:04.380Z,2.23
2019-03-15T22:37:57.743Z,2.27
2019-03-15T22:42:51.210Z,1.43
2019-03-15T22:47:44.562Z,2.30
2019-03-15T22:52:38.168Z,2.10
2019-03-15T22:57:31.835Z,2.27
2019-03-15T23:02:25.521Z,2.03
2019-03-15T23:07:18.959Z,1.97
2019-03-15T23:12:12.577Z,2.43
2019-03-15T23:17:06.062Z,2.40
2019-03-15T23:21:59.439Z,2.63
2019-03-15T23:26:52.858Z,2.10
2019-03-15T23:31:46.180Z,2.13
2019-03-15T23:36:39.554Z,2.07
2019-03-15T23:41:32.920Z,2.03
2019-03-15T23:46:26.529Z,1.97
2019-03-15T23:51:19.886Z,2.63
2019-03-15T23:56:13.295Z,2.03
